Time;durP1;ratioP1;P1;durP2;ratioP2;P2;SDS_P1;SDS_P2;PMS_P1;PMS_P2;Temp;Humidity;BMP_temperature;BMP_pressure;BME280_temperature;BME280_humidity;BME280_pressure;Samples;Min_cycle;Max_cycle;Signal;HPM_P1;HPM_P2
2022/02/24 00:01:08;;;;;;;22.25;4.88;;;3.50;99.90;;;;;;4977782;28;20181;-65
2022/02/24 00:03:35;;;;;;;14.70;4.30;;;3.60;99.90;;;;;;4975332;28;20057;-69
2022/02/24 00:06:02;;;;;;;19.33;3.60;;;3.60;99.90;;;;;;4977873;28;20074;-66
2022/02/24 00:08:30;;;;;;;12.25;2.97;;;3.60;99.90;;;;;;4977071;28;20057;-66
2022/02/24 00:10:57;;;;;;;10.13;3.33;;;3.60;99.90;;;;;;4978678;28;20073;-68
2022/02/24 00:13:23;;;;;;;13.35;2.90;;;3.60;99.90;;;;;;4973821;28;20157;-69
2022/02/24 00:15:50;;;;;;;9.45;3.50;;;3.60;99.90;;;;;;4979349;28;20184;-67
2022/02/24 00:18:17;;;;;;;14.18;3.00;;;3.60;99.90;;;;;;4975912;28;20179;-66
2022/02/24 00:20:44;;;;;;;18.00;3.95;;;3.60;99.90;;;;;;4978173;28;20469;-66
2022/02/24 00:23:11;;;;;;;20.25;4.55;;;3.60;99.90;;;;;;4972956;28;20474;-69
2022/02/24 00:25:38;;;;;;;16.75;3.53;;;3.60;99.90;;;;;;4977511;28;20156;-69
2022/02/24 00:28:06;;;;;;;20.35;4.43;;;3.50;99.90;;;;;;4975685;28;20050;-67
2022/02/24 00:30:33;;;;;;;13.50;4.15;;;3.50;99.90;;;;;;4978085;28;20238;-67
2022/02/24 00:33:00;;;;;;;12.32;2.92;;;3.60;99.90;;;;;;4975416;28;20168;-66
2022/02/24 00:35:27;;;;;;;15.05;3.30;;;3.60;99.90;;;;;;4974267;28;20057;-68
2022/02/24 00:37:54;;;;;;;23.75;4.97;;;3.60;99.90;;;;;;4976041;28;20060;-68
2022/02/24 00:40:21;;;;;;;25.55;5.18;;;3.60;99.90;;;;;;4977342;28;20212;-67
2022/02/24 00:42:48;;;;;;;18.50;4.15;;;3.50;99.90;;;;;;4976340;28;20171;-66
2022/02/24 00:45:14;;;;;;;10.50;3.42;;;3.60;99.90;;;;;;4974472;28;20070;-69
2022/02/24 00:47:42;;;;;;;13.60;3.83;;;3.60;99.90;;;;;;4976242;28;20148;-72
2022/02/24 00:50:12;;;;;;;12.77;3.33;;;3.60;99.90;;;;;;4976613;28;20049;-69
2022/02/24 00:52:38;;;;;;;10.35;2.40;;;3.70;99.90;;;;;;4976949;28;20460;-66
2022/02/24 00:55:06;;;;;;;15.57;2.78;;;3.70;99.90;;;;;;4975885;28;20054;-67
2022/02/24 00:57:33;;;;;;;15.93;4.82;;;3.80;99.90;;;;;;4975979;28;20584;-68
2022/02/24 01:00:00;;;;;;;17.67;3.05;;;3.80;99.90;;;;;;4976041;28;20141;-70
2022/02/24 01:02:26;;;;;;;8.85;2.60;;;3.80;99.90;;;;;;4976728;28;20785;-67
2022/02/24 01:04:53;;;;;;;7.50;3.10;;;4.00;99.90;;;;;;4975829;28;20164;-66
2022/02/24 01:07:21;;;;;;;7.07;2.40;;;4.10;99.90;;;;;;4974774;28;20058;-65
2022/02/24 01:09:48;;;;;;;12.13;2.95;;;4.10;99.90;;;;;;4976246;28;20141;-69
2022/02/24 01:12:18;;;;;;;15.25;2.95;;;4.20;99.90;;;;;;4977142;28;20762;-70
2022/02/24 01:14:44;;;;;;;11.80;3.80;;;4.20;99.90;;;;;;4976500;28;20083;-66
2022/02/24 01:17:12;;;;;;;10.30;3.75;;;4.30;99.90;;;;;;4989322;28;20452;-68
2022/02/24 01:19:39;;;;;;;10.27;2.55;;;4.20;99.90;;;;;;4974993;28;20165;-70
2022/02/24 01:22:06;;;;;;;5.95;2.92;;;4.30;99.90;;;;;;4977540;28;20517;-68
2022/02/24 01:24:33;;;;;;;9.35;1.98;;;4.30;99.90;;;;;;4975527;28;20050;-67
2022/02/24 01:27:00;;;;;;;11.65;3.47;;;4.30;99.90;;;;;;4976357;28;20150;-68
2022/02/24 01:29:27;;;;;;;7.90;2.60;;;4.30;99.90;;;;;;4973421;28;20103;-67
2022/02/24 01:31:54;;;;;;;5.97;1.85;;;4.30;99.90;;;;;;4977062;28;20062;-68
2022/02/24 01:34:27;;;;;;;7.05;2.40;;;4.20;99.90;;;;;;4975976;28;20064;-66
2022/02/24 01:36:54;;;;;;;15.00;3.83;;;4.20;99.90;;;;;;4975102;28;20655;-65
2022/02/24 01:39:21;;;;;;;10.68;2.50;;;4.20;99.90;;;;;;4968933;28;20082;-69
2022/02/24 01:41:48;;;;;;;9.30;2.85;;;4.20;99.90;;;;;;4974776;28;20062;-67
2022/02/24 01:44:15;;;;;;;5.78;2.40;;;4.20;99.90;;;;;;4975425;28;20136;-66
2022/02/24 01:46:42;;;;;;;14.20;2.90;;;4.20;99.90;;;;;;4976296;28;20144;-67
2022/02/24 01:49:11;;;;;;;11.05;4.75;;;4.10;99.90;;;;;;4976643;28;20058;-66
2022/02/24 01:51:38;;;;;;;10.48;2.67;;;4.10;99.90;;;;;;4973865;28;20050;-67
2022/02/24 01:54:06;;;;;;;9.00;2.10;;;4.00;99.90;;;;;;4976873;28;20220;-67
2022/02/24 01:56:36;;;;;;;13.57;2.78;;;4.00;99.90;;;;;;4975447;28;20089;-67
2022/02/24 01:59:03;;;;;;;12.85;1.98;;;4.00;99.90;;;;;;4976402;28;20108;-64
2022/02/24 02:01:31;;;;;;;9.13;2.45;;;3.90;99.90;;;;;;4973216;28;20609;-66
2022/02/24 02:03:59;;;;;;;6.63;2.90;;;3.80;99.90;;;;;;4977674;28;20050;-67
2022/02/24 02:06:26;;;;;;;8.23;1.63;;;3.80;99.90;;;;;;4970166;28;20141;-70
2022/02/24 02:08:53;;;;;;;8.52;2.42;;;3.80;99.90;;;;;;4975944;28;20070;-65
2022/02/24 02:11:19;;;;;;;11.18;3.47;;;3.80;99.90;;;;;;4972122;28;20086;-69
2022/02/24 02:13:46;;;;;;;7.75;1.77;;;3.70;99.90;;;;;;4976118;28;20327;-66
2022/02/24 02:16:13;;;;;;;9.25;2.47;;;3.70;99.90;;;;;;4979109;28;20232;-66
2022/02/24 02:18:42;;;;;;;10.68;2.47;;;3.60;99.90;;;;;;4977291;28;20046;-68
2022/02/24 02:21:09;;;;;;;7.55;2.40;;;3.50;99.90;;;;;;4981041;28;20138;-69
2022/02/24 02:23:36;;;;;;;10.73;2.40;;;3.50;99.90;;;;;;4976809;28;20389;-68
2022/02/24 02:26:03;;;;;;;10.73;1.95;;;3.50;99.90;;;;;;4978618;28;20093;-71
2022/02/24 02:28:30;;;;;;;9.32;2.20;;;3.50;99.90;;;;;;4978712;28;20161;-66
2022/02/24 02:30:57;;;;;;;10.13;2.17;;;3.50;99.90;;;;;;4925182;28;20695;-66
2022/02/24 02:33:33;;;;;;;8.63;1.50;;;3.50;99.90;;;;;;1593874;28;10023563;-66
2022/02/24 02:36:01;;;;;;;5.15;1.77;;;3.50;99.90;;;;;;3949837;28;10001496;-66
2022/02/24 02:38:27;;;;;;;12.68;2.17;;;3.50;99.90;;;;;;4977868;28;20149;-67
2022/02/24 02:40:54;;;;;;;7.47;2.15;;;3.60;99.90;;;;;;4979887;28;20185;-69
2022/02/24 02:43:21;;;;;;;17.10;3.22;;;3.60;99.90;;;;;;4978358;28;20073;-65
2022/02/24 02:45:50;;;;;;;9.10;2.92;;;3.60;99.90;;;;;;4977764;28;20137;-67
2022/02/24 02:48:17;;;;;;;6.80;2.00;;;3.70;99.90;;;;;;4978409;28;20046;-68
2022/02/24 02:50:44;;;;;;;11.32;2.25;;;3.70;99.90;;;;;;4980551;28;20088;-65
2022/02/24 02:53:11;;;;;;;7.18;1.83;;;3.70;99.90;;;;;;4977155;28;20260;-67
2022/02/24 02:55:38;;;;;;;12.40;3.88;;;3.60;99.90;;;;;;4980572;28;21360;-68
2022/02/24 02:58:05;;;;;;;7.20;1.92;;;3.70;99.90;;;;;;4978018;28;20137;-71
2022/02/24 03:00:32;;;;;;;9.23;2.10;;;3.80;99.90;;;;;;4980383;28;20074;-65
2022/02/24 03:02:59;;;;;;;12.00;3.38;;;3.80;99.90;;;;;;4977630;28;20066;-67
2022/02/24 03:05:26;;;;;;;12.25;2.17;;;3.70;99.90;;;;;;4976588;28;20065;-70
2022/02/24 03:07:53;;;;;;;8.63;2.50;;;3.70;99.90;;;;;;4994661;28;20046;-69
2022/02/24 03:10:20;;;;;;;17.00;2.90;;;3.70;99.90;;;;;;4934267;28;20062;-65
2022/02/24 03:13:04;;;;;;;10.34;2.36;;;3.70;99.90;;;;;;2538586;28;10004006;-65
2022/02/24 03:15:31;;;;;;;13.77;2.85;;;3.70;99.90;;;;;;3260945;28;10001904;-66
2022/02/24 03:17:59;;;;;;;23.05;3.03;;;3.70;99.90;;;;;;4995095;28;20149;-66
2022/02/24 03:20:31;;;;;;;11.27;3.17;;;3.80;99.90;;;;;;4994093;28;20111;-66
2022/02/24 03:23:01;;;;;;;8.27;2.95;;;3.80;99.90;;;;;;4996717;28;20053;-66
2022/02/24 03:25:28;;;;;;;7.78;3.25;;;3.90;99.90;;;;;;4992008;28;20140;-70
2022/02/24 03:27:56;;;;;;;12.68;2.47;;;3.90;99.90;;;;;;4995361;28;20437;-65
2022/02/24 03:30:25;;;;;;;8.02;1.98;;;3.90;99.90;;;;;;4995460;28;20050;-69
2022/02/24 03:32:54;;;;;;;9.45;1.83;;;4.00;99.90;;;;;;4994813;28;20050;-69
2022/02/24 03:35:21;;;;;;;12.10;2.38;;;4.10;99.90;;;;;;4994359;28;20104;-65
2022/02/24 03:37:49;;;;;;;10.80;2.40;;;4.00;99.90;;;;;;4995628;28;20054;-67
2022/02/24 03:40:17;;;;;;;8.38;3.08;;;4.10;99.90;;;;;;4996603;28;20096;-67
2022/02/24 03:42:45;;;;;;;13.75;2.78;;;4.20;99.90;;;;;;4995089;28;20057;-65
2022/02/24 03:45:12;;;;;;;7.20;2.63;;;4.20;99.90;;;;;;4993771;28;20046;-67
2022/02/24 03:47:39;;;;;;;11.77;3.28;;;4.30;99.90;;;;;;4994840;28;20147;-68
2022/02/24 03:50:07;;;;;;;6.65;2.42;;;4.30;99.90;;;;;;4997062;28;20136;-64
2022/02/24 03:52:34;;;;;;;7.35;2.58;;;4.40;99.90;;;;;;4995095;28;20156;-67
2022/02/24 03:55:01;;;;;;;8.75;2.38;;;4.40;99.90;;;;;;4927607;28;20675;-65
2022/02/24 03:57:43;;;;;;;22.57;2.62;;;4.40;99.90;;;;;;1834806;28;10023561;-69
2022/02/24 04:00:11;;;;;;;13.50;2.47;;;4.40;99.90;;;;;;4651654;28;10001123;-65
2022/02/24 04:02:42;;;;;;;10.82;3.30;;;4.40;99.90;;;;;;4995134;28;20153;-65
2022/02/24 04:05:10;;;;;;;13.20;3.10;;;4.40;99.90;;;;;;4995332;28;20707;-68
2022/02/24 04:07:38;;;;;;;10.65;4.00;;;4.50;99.90;;;;;;4990956;28;20050;-67
2022/02/24 04:10:06;;;;;;;11.13;3.78;;;4.40;99.90;;;;;;4975446;28;20141;-68
2022/02/24 04:12:33;;;;;;;14.00;3.55;;;4.50;99.90;;;;;;4976427;28;20125;-65
2022/02/24 04:15:01;;;;;;;15.38;4.07;;;4.40;99.90;;;;;;4974880;28;20209;-67
2022/02/24 04:17:28;;;;;;;10.80;4.60;;;4.50;99.90;;;;;;4974843;28;20121;-65
2022/02/24 04:19:55;;;;;;;9.73;3.40;;;4.40;99.90;;;;;;4980972;28;20145;-66
2022/02/24 04:22:22;;;;;;;12.45;3.50;;;4.50;99.90;;;;;;4995483;28;20050;-72
2022/02/24 04:24:49;;;;;;;10.50;3.22;;;4.50;99.90;;;;;;4995164;28;20108;-66
2022/02/24 04:27:17;;;;;;;10.43;3.10;;;4.50;99.90;;;;;;4993601;28;20053;-67
2022/02/24 04:29:44;;;;;;;11.82;3.10;;;4.60;99.90;;;;;;4993913;28;20097;-65
2022/02/24 04:32:11;;;;;;;17.02;4.80;;;4.60;99.90;;;;;;4995745;28;20157;-73
2022/02/24 04:34:38;;;;;;;10.30;3.15;;;4.70;99.90;;;;;;4995048;28;20058;-68
2022/02/24 04:37:05;;;;;;;13.77;4.10;;;4.70;99.90;;;;;;4995225;28;20053;-67
2022/02/24 04:39:32;;;;;;;8.52;3.08;;;4.70;99.90;;;;;;4993262;28;20471;-67
2022/02/24 04:41:59;;;;;;;16.35;4.50;;;4.80;99.90;;;;;;4995357;28;20586;-67
2022/02/24 04:44:26;;;;;;;8.50;3.67;;;4.80;99.90;;;;;;4994732;28;20061;-67
2022/02/24 04:46:53;;;;;;;13.82;4.25;;;4.80;99.90;;;;;;4994700;28;20052;-65
2022/02/24 04:49:20;;;;;;;9.63;3.80;;;4.70;99.90;;;;;;4993281;28;20133;-69
2022/02/24 04:51:47;;;;;;;10.15;4.22;;;4.80;99.90;;;;;;4994559;28;20058;-66
2022/02/24 04:54:13;;;;;;;16.27;4.82;;;4.80;99.90;;;;;;4994962;28;20136;-64
2022/02/24 04:56:40;;;;;;;9.07;4.20;;;4.70;99.90;;;;;;4994046;28;21634;-64
2022/02/24 04:59:07;;;;;;;11.07;5.47;;;4.80;99.90;;;;;;4995165;28;20096;-69
2022/02/24 05:01:35;;;;;;;13.48;4.85;;;4.90;99.90;;;;;;4991972;28;20057;-67
2022/02/24 05:04:04;;;;;;;19.73;5.60;;;4.80;99.90;;;;;;4995787;28;20097;-65
2022/02/24 05:06:30;;;;;;;7.85;3.17;;;4.80;99.90;;;;;;4993990;28;20062;-66
2022/02/24 05:08:57;;;;;;;11.65;4.32;;;4.80;99.90;;;;;;4993232;28;20093;-67
2022/02/24 05:11:24;;;;;;;10.18;4.63;;;4.80;99.90;;;;;;4991427;28;20124;-70
2022/02/24 05:13:51;;;;;;;8.00;4.85;;;4.90;99.90;;;;;;4994187;28;20057;-68
2022/02/24 05:16:21;;;;;;;14.40;4.05;;;4.90;99.90;;;;;;4993865;28;20049;-66
2022/02/24 05:18:48;;;;;;;16.00;4.80;;;4.80;99.90;;;;;;4994947;28;20073;-67
2022/02/24 05:21:17;;;;;;;9.77;4.47;;;4.80;99.90;;;;;;4991704;28;20092;-67
2022/02/24 05:23:44;;;;;;;18.95;6.03;;;4.80;99.90;;;;;;4994783;28;20432;-65
2022/02/24 05:26:11;;;;;;;14.18;4.50;;;4.80;99.90;;;;;;4992120;28;20057;-66
2022/02/24 05:28:38;;;;;;;9.68;4.65;;;4.80;99.90;;;;;;4994423;28;20144;-67
2022/02/24 05:31:05;;;;;;;19.65;5.78;;;4.80;99.90;;;;;;4994280;28;20060;-69
2022/02/24 05:33:32;;;;;;;10.50;5.57;;;4.80;99.90;;;;;;4992830;28;20480;-67
2022/02/24 05:36:01;;;;;;;17.20;5.03;;;4.80;99.90;;;;;;4993733;28;20988;-64
2022/02/24 05:38:28;;;;;;;16.40;5.70;;;4.80;99.90;;;;;;4994458;28;20427;-68
2022/02/24 05:40:55;;;;;;;13.02;5.32;;;4.80;99.90;;;;;;4993490;28;20112;-67
2022/02/24 05:43:22;;;;;;;16.23;5.50;;;4.80;99.90;;;;;;4992886;28;20057;-67
2022/02/24 05:45:49;;;;;;;10.80;5.40;;;4.80;99.90;;;;;;4994658;28;20467;-67
2022/02/24 05:48:17;;;;;;;6.65;4.40;;;4.80;99.90;;;;;;4994027;28;20076;-67
2022/02/24 05:50:45;;;;;;;18.23;6.13;;;4.90;99.90;;;;;;4993628;28;20665;-64
2022/02/24 05:53:12;;;;;;;14.15;6.15;;;4.90;99.90;;;;;;4991707;28;20207;-66
2022/02/24 05:55:39;;;;;;;11.63;4.50;;;4.90;99.90;;;;;;4974234;28;20050;-66
2022/02/24 05:58:06;;;;;;;18.80;6.30;;;4.90;99.90;;;;;;4972734;28;20515;-67
2022/02/24 06:00:33;;;;;;;10.82;4.40;;;4.80;99.90;;;;;;4974081;28;20051;-67
2022/02/24 06:03:01;;;;;;;10.77;5.05;;;4.80;99.90;;;;;;4972849;28;20073;-65
2022/02/24 06:05:28;;;;;;;16.45;6.00;;;4.80;99.90;;;;;;4971939;28;20181;-66
2022/02/24 06:07:57;;;;;;;14.93;5.10;;;4.80;99.90;;;;;;4972546;28;20046;-68
2022/02/24 06:10:24;;;;;;;13.68;4.88;;;4.80;99.90;;;;;;4973078;28;20125;-65
2022/02/24 06:12:57;;;;;;;23.35;4.75;;;4.70;99.90;;;;;;4969682;28;20212;-70
2022/02/24 06:15:24;;;;;;;11.70;4.22;;;4.70;99.90;;;;;;4971256;28;20384;-67
2022/02/24 06:17:51;;;;;;;10.73;4.05;;;4.70;99.90;;;;;;4973685;28;20086;-69
2022/02/24 06:20:18;;;;;;;14.50;4.82;;;4.70;99.90;;;;;;4973245;28;20446;-67
2022/02/24 06:22:49;;;;;;;15.82;5.00;;;4.70;99.90;;;;;;4971810;28;20106;-68
2022/02/24 06:25:16;;;;;;;7.90;3.85;;;4.70;99.90;;;;;;4970583;28;20066;-70
2022/02/24 06:27:43;;;;;;;16.95;4.90;;;4.70;99.90;;;;;;4971276;28;20124;-68
2022/02/24 06:30:10;;;;;;;13.68;5.45;;;4.70;99.90;;;;;;4973287;28;21542;-67
2022/02/24 06:32:38;;;;;;;10.45;4.55;;;4.70;99.90;;;;;;4973085;28;20774;-68
2022/02/24 06:35:05;;;;;;;13.82;4.85;;;4.70;99.90;;;;;;4972905;28;20074;-67
2022/02/24 06:37:33;;;;;;;13.77;4.07;;;4.70;99.90;;;;;;4972161;28;20141;-66
2022/02/24 06:40:00;;;;;;;11.88;4.50;;;4.70;99.90;;;;;;4947793;28;20267;-65
2022/02/24 06:42:41;;;;;;;11.88;5.03;;;4.70;99.90;;;;;;2769781;28;10004060;-65
2022/02/24 06:45:09;;;;;;;16.00;4.20;;;4.70;99.90;;;;;;2914485;28;10001637;-69
2022/02/24 06:47:37;;;;;;;13.27;4.97;;;4.70;99.90;;;;;;4970938;28;20050;-66
2022/02/24 06:50:05;;;;;;;10.52;4.50;;;4.70;99.90;;;;;;4972351;28;20488;-64
2022/02/24 06:52:32;;;;;;;13.93;4.28;;;4.70;99.90;;;;;;4985088;28;20061;-64
2022/02/24 06:55:01;;;;;;;17.33;5.13;;;4.70;99.90;;;;;;4992645;28;20268;-64
2022/02/24 06:57:27;;;;;;;16.48;4.63;;;4.70;99.90;;;;;;4989842;28;20144;-64
2022/02/24 06:59:55;;;;;;;15.07;4.07;;;4.70;99.90;;;;;;4992504;28;20419;-66
2022/02/24 07:02:22;;;;;;;11.32;4.45;;;4.70;99.90;;;;;;4992012;28;20061;-65
2022/02/24 07:04:50;;;;;;;17.67;4.90;;;4.70;99.90;;;;;;4996523;28;20050;-66
2022/02/24 07:07:18;;;;;;;8.77;4.13;;;4.80;99.90;;;;;;4993375;28;20498;-67
2022/02/24 07:09:45;;;;;;;12.00;3.35;;;4.70;99.90;;;;;;4995536;28;20076;-65
2022/02/24 07:12:12;;;;;;;13.57;4.38;;;4.80;99.90;;;;;;4993597;28;20045;-66
2022/02/24 07:14:39;;;;;;;8.45;4.05;;;4.70;99.90;;;;;;4994722;28;20056;-68
2022/02/24 07:17:07;;;;;;;11.85;4.25;;;4.80;99.90;;;;;;4994430;28;20073;-66
2022/02/24 07:19:34;;;;;;;15.35;4.70;;;4.80;99.90;;;;;;4993982;28;20184;-66
2022/02/24 07:22:01;;;;;;;14.57;3.63;;;4.80;99.90;;;;;;5010052;28;20067;-65
2022/02/24 07:24:27;;;;;;;12.23;4.45;;;4.80;99.90;;;;;;5024461;28;20054;-65
2022/02/24 07:26:54;;;;;;;19.65;4.63;;;4.80;99.90;;;;;;4995010;28;20192;-65
2022/02/24 07:29:21;;;;;;;13.52;3.80;;;4.80;99.90;;;;;;4990538;28;20077;-67
2022/02/24 07:31:48;;;;;;;13.90;4.28;;;4.80;99.90;;;;;;4995664;28;20073;-66
2022/02/24 07:34:15;;;;;;;13.68;4.30;;;4.80;99.90;;;;;;4995087;28;20154;-65
2022/02/24 07:36:43;;;;;;;8.25;3.83;;;4.80;99.90;;;;;;4995495;28;20140;-68
2022/02/24 07:39:12;;;;;;;20.42;4.60;;;4.70;99.90;;;;;;4992712;28;20073;-66
2022/02/24 07:41:40;;;;;;;12.10;4.18;;;4.80;99.90;;;;;;4995894;28;20057;-65
2022/02/24 07:44:07;;;;;;;13.50;4.97;;;4.70;99.90;;;;;;4994978;28;20294;-66
2022/02/24 07:46:52;;;;;;;15.76;3.98;;;4.70;99.90;;;;;;4441205;28;10001002;-68
2022/02/24 07:49:22;;;;;;;16.27;5.03;;;4.70;99.90;;;;;;2748609;28;10002030;-68
2022/02/24 07:51:51;;;;;;;15.25;4.63;;;4.60;99.90;;;;;;4986000;28;20073;-65
2022/02/24 07:54:20;;;;;;;11.00;4.40;;;4.60;99.90;;;;;;4994503;28;20123;-65
2022/02/24 07:56:47;;;;;;;14.65;4.35;;;4.60;99.90;;;;;;4994775;28;20049;-69
2022/02/24 07:59:17;;;;;;;12.10;5.07;;;4.60;99.90;;;;;;4993189;28;20050;-65
2022/02/24 08:01:44;;;;;;;11.82;4.05;;;4.60;99.90;;;;;;4995692;28;20054;-64
2022/02/24 08:04:11;;;;;;;14.85;4.78;;;4.60;99.90;;;;;;4994676;28;20050;-66
2022/02/24 08:06:38;;;;;;;15.15;5.60;;;4.70;99.90;;;;;;5023920;28;20709;-67
2022/02/24 08:09:08;;;;;;;16.42;4.88;;;4.70;99.90;;;;;;4993226;28;20156;-66
2022/02/24 08:11:35;;;;;;;19.52;6.75;;;4.70;99.90;;;;;;4992696;28;21548;-65
2022/02/24 08:14:04;;;;;;;18.13;4.50;;;4.80;99.90;;;;;;4994158;28;20112;-65
2022/02/24 08:16:31;;;;;;;20.63;5.38;;;4.80;99.90;;;;;;4994948;28;20611;-63
2022/02/24 08:19:00;;;;;;;17.63;5.40;;;4.90;99.90;;;;;;4994018;28;20060;-63
2022/02/24 08:21:28;;;;;;;14.10;4.47;;;5.00;99.90;;;;;;4993620;28;20140;-62
2022/02/24 08:23:54;;;;;;;17.40;6.10;;;5.00;99.90;;;;;;4993595;28;20136;-64
2022/02/24 08:26:24;;;;;;;16.20;4.70;;;5.10;99.90;;;;;;4994197;28;20058;-62
2022/02/24 08:28:51;;;;;;;18.65;5.65;;;5.20;99.90;;;;;;4994659;28;20143;-63
2022/02/24 08:31:18;;;;;;;10.38;4.63;;;5.20;99.90;;;;;;4993813;28;20054;-66
2022/02/24 08:33:45;;;;;;;11.20;3.50;;;5.30;99.90;;;;;;4989188;28;20116;-64
2022/02/24 08:36:12;;;;;;;19.60;5.57;;;5.30;99.90;;;;;;4984270;28;20131;-65
2022/02/24 08:38:39;;;;;;;12.40;4.75;;;5.30;99.90;;;;;;4994588;28;20148;-67
2022/02/24 08:41:26;;;;;;;9.70;4.70;;;5.30;99.90;;;;;;4991198;28;20678;-68
2022/02/24 08:43:53;;;;;;;13.55;4.15;;;5.30;99.90;;;;;;4974689;28;20165;-65
2022/02/24 08:46:20;;;;;;;12.27;4.82;;;5.40;99.90;;;;;;4976363;28;20050;-64
2022/02/24 08:48:47;;;;;;;18.52;4.63;;;5.40;99.90;;;;;;4974701;28;20136;-66
2022/02/24 08:51:14;;;;;;;15.82;5.05;;;5.30;99.90;;;;;;4973322;28;20097;-64
2022/02/24 08:53:40;;;;;;;14.18;4.72;;;5.40;99.90;;;;;;4974415;28;20069;-65
2022/02/24 08:56:07;;;;;;;15.70;5.30;;;5.40;99.90;;;;;;4974012;28;20170;-68
2022/02/24 08:58:34;;;;;;;16.00;5.95;;;5.40;99.90;;;;;;4973435;28;20134;-64
2022/02/24 09:01:02;;;;;;;16.95;5.53;;;5.40;99.90;;;;;;4975093;28;20440;-65
2022/02/24 09:03:32;;;;;;;13.43;4.63;;;5.40;99.90;;;;;;4971960;28;21055;-63
2022/02/24 09:05:59;;;;;;;12.48;4.60;;;5.40;99.90;;;;;;4981622;28;20049;-68
2022/02/24 09:08:26;;;;;;;14.27;6.25;;;5.50;99.90;;;;;;4993499;28;20535;-65
2022/02/24 09:10:53;;;;;;;12.40;5.43;;;5.50;99.90;;;;;;4994814;28;20355;-64
2022/02/24 09:13:19;;;;;;;13.57;5.95;;;5.50;99.90;;;;;;4973846;28;20143;-67
2022/02/24 09:15:46;;;;;;;11.05;4.57;;;5.60;99.90;;;;;;4974849;28;20053;-64
2022/02/24 09:18:13;;;;;;;11.43;5.30;;;5.60;99.90;;;;;;4972061;28;20050;-70
2022/02/24 09:20:42;;;;;;;20.35;4.78;;;5.60;99.90;;;;;;4974612;28;20145;-64
2022/02/24 09:23:09;;;;;;;17.65;5.38;;;5.60;99.90;;;;;;4972901;28;20123;-67
2022/02/24 09:25:38;;;;;;;11.10;5.28;;;5.70;99.90;;;;;;4971187;28;20053;-67
2022/02/24 09:28:05;;;;;;;15.65;4.72;;;5.60;99.90;;;;;;4971015;28;20042;-67
2022/02/24 09:30:32;;;;;;;17.70;7.80;;;5.70;99.90;;;;;;4974107;28;20183;-65
2022/02/24 09:33:05;;;;;;;14.95;5.00;;;5.70;99.90;;;;;;4973627;28;20531;-64
2022/02/24 09:35:33;;;;;;;19.23;4.95;;;5.70;99.90;;;;;;4971378;28;20065;-68
2022/02/24 09:38:00;;;;;;;20.20;6.22;;;5.80;99.90;;;;;;4973277;28;20889;-67
2022/02/24 09:40:30;;;;;;;17.50;6.13;;;5.80;99.90;;;;;;4973429;28;20492;-66
2022/02/24 09:43:18;;;;;;;15.00;6.20;;;5.80;99.90;;;;;;4972700;28;20044;-67
2022/02/24 09:45:48;;;;;;;23.27;5.90;;;5.80;99.90;;;;;;4974468;28;20054;-64
2022/02/24 09:48:23;;;;;;;26.90;8.18;;;5.80;99.90;;;;;;4971539;28;20065;-68
2022/02/24 09:50:51;;;;;;;14.73;5.78;;;5.80;99.90;;;;;;4973402;28;20117;-67
2022/02/24 09:53:20;;;;;;;12.65;5.72;;;5.80;99.90;;;;;;4970594;28;20058;-65
2022/02/24 09:55:47;;;;;;;12.63;6.60;;;5.80;99.90;;;;;;4972178;28;20783;-65
2022/02/24 09:58:14;;;;;;;18.48;6.35;;;5.80;99.90;;;;;;4970710;28;20057;-64
2022/02/24 10:00:41;;;;;;;17.98;6.75;;;5.80;99.90;;;;;;4971595;28;20054;-68
2022/02/24 10:03:24;;;;;;;14.73;5.95;;;5.80;99.90;;;;;;4971523;28;20070;-67
2022/02/24 10:05:51;;;;;;;11.43;5.95;;;5.80;99.90;;;;;;4986685;28;20146;-64
2022/02/24 10:08:27;;;;;;;16.92;7.80;;;5.80;99.90;;;;;;4972490;28;20121;-67
2022/02/24 10:10:54;;;;;;;12.45;6.30;;;5.80;99.90;;;;;;4973437;28;20529;-65
2022/02/24 10:13:23;;;;;;;26.05;6.57;;;5.80;99.90;;;;;;4970864;28;20144;-67
2022/02/24 10:15:56;;;;;;;14.82;4.93;;;5.80;99.90;;;;;;4973414;28;20078;-65
2022/02/24 10:18:27;;;;;;;10.93;4.65;;;5.80;99.90;;;;;;4972964;28;20054;-64
2022/02/24 10:21:00;;;;;;;21.45;7.00;;;5.80;99.90;;;;;;4972807;28;20164;-66
2022/02/24 10:23:37;;;;;;;14.25;5.35;;;5.80;99.90;;;;;;4972078;28;20100;-65
2022/02/24 10:26:10;;;;;;;16.80;5.70;;;5.80;99.90;;;;;;4972460;28;20492;-64
2022/02/24 10:28:49;;;;;;;20.75;5.75;;;5.90;99.90;;;;;;4973048;28;20090;-68
2022/02/24 10:31:22;;;;;;;18.73;6.10;;;5.90;99.90;;;;;;4988716;28;20071;-65
2022/02/24 10:34:06;;;;;;;16.15;6.43;;;5.90;99.90;;;;;;4993027;28;20062;-65
2022/02/24 10:36:36;;;;;;;15.40;5.45;;;5.90;99.90;;;;;;4995034;28;20038;-67
2022/02/24 10:39:11;;;;;;;13.20;5.15;;;5.90;99.90;;;;;;4996619;28;20137;-64
2022/02/24 10:41:47;;;;;;;13.07;4.40;;;5.80;99.90;;;;;;4994565;28;20053;-67
2022/02/24 10:44:22;;;;;;;14.23;5.30;;;5.90;99.90;;;;;;4995371;28;20103;-64
2022/02/24 10:47:04;;;;;;;18.90;5.60;;;5.80;99.90;;;;;;4995477;28;20046;-67
2022/02/24 10:49:37;;;;;;;13.65;4.82;;;5.90;99.90;;;;;;4994159;28;20496;-65
2022/02/24 10:52:10;;;;;;;17.35;5.07;;;5.90;99.90;;;;;;4996561;28;20180;-64
2022/02/24 10:54:37;;;;;;;11.63;5.60;;;6.00;99.90;;;;;;4996255;28;20048;-64
2022/02/24 10:57:21;;;;;;;17.83;6.35;;;6.10;99.90;;;;;;4996116;28;20080;-67
2022/02/24 10:59:48;;;;;;;14.35;5.50;;;6.20;99.90;;;;;;4994469;28;20057;-64
2022/02/24 11:02:44;;;;;;;15.35;5.80;;;6.20;99.90;;;;;;3305127;28;10022164;-68
2022/02/24 11:05:11;;;;;;;20.83;6.60;;;6.20;99.90;;;;;;2582424;28;10001909;-65
2022/02/24 11:07:39;;;;;;;16.40;5.90;;;6.20;99.90;;;;;;4995688;28;20215;-64
2022/02/24 11:10:06;;;;;;;11.02;5.30;;;6.20;99.90;;;;;;4997896;28;20149;-69
2022/02/24 11:12:33;;;;;;;10.70;5.13;;;6.20;99.90;;;;;;4995777;28;20156;-65
2022/02/24 11:15:01;;;;;;;13.07;5.13;;;6.20;99.90;;;;;;4996812;28;20640;-65
2022/02/24 11:17:28;;;;;;;16.42;5.72;;;6.20;99.90;;;;;;4993501;28;20096;-65
2022/02/24 11:19:56;;;;;;;8.18;5.18;;;6.20;99.90;;;;;;4996699;28;20938;-67
2022/02/24 11:22:24;;;;;;;13.45;4.80;;;6.10;99.90;;;;;;4994618;28;20081;-66
2022/02/24 11:24:55;;;;;;;16.92;6.03;;;6.20;99.90;;;;;;4996373;28;20046;-68
2022/02/24 11:27:35;;;;;;;14.75;5.25;;;6.10;99.90;;;;;;4992164;28;20177;-64
2022/02/24 11:30:10;;;;;;;24.67;6.50;;;6.10;99.90;;;;;;4997122;28;20120;-65
2022/02/24 11:32:43;;;;;;;19.30;5.82;;;6.00;99.90;;;;;;4991731;28;20058;-65
2022/02/24 11:35:20;;;;;;;17.75;6.72;;;5.90;99.90;;;;;;4996115;28;20062;-65
2022/02/24 11:38:07;;;;;;;17.27;5.55;;;5.90;99.90;;;;;;4974188;28;20057;-68
2022/02/24 11:40:37;;;;;;;16.75;5.57;;;5.80;99.90;;;;;;4996575;28;20140;-68
2022/02/24 11:43:04;;;;;;;;;;;5.80;99.90;;;;;;4914912;28;20130;-64
2022/02/24 11:45:51;;;;;;;14.60;6.70;;;5.80;99.90;;;;;;2056957;28;10024501;-65
2022/02/24 11:48:40;;;;;;;19.08;6.03;;;5.70;99.90;;;;;;4294125;28;10001377;-65
2022/02/24 11:51:15;;;;;;;14.10;7.55;;;5.60;99.90;;;;;;4975914;28;20512;-67
2022/02/24 11:53:44;;;;;;;14.90;5.28;;;5.60;99.90;;;;;;4972742;28;20050;-68
2022/02/24 11:56:15;;;;;;;17.02;4.90;;;5.60;99.90;;;;;;4976196;28;20054;-66
2022/02/24 11:58:46;;;;;;;14.60;6.22;;;5.50;99.90;;;;;;4971481;28;20101;-65
2022/02/24 12:01:34;;;;;;;10.15;5.13;;;5.50;99.90;;;;;;4973212;28;20117;-65
2022/02/24 12:04:26;;;;;;;16.42;6.03;;;5.50;99.90;;;;;;4973297;28;20078;-67
2022/02/24 12:07:14;;;;;;;15.30;5.07;;;5.50;99.90;;;;;;4972379;28;20144;-69
2022/02/24 12:09:42;;;;;;;15.10;4.75;;;5.60;99.90;;;;;;4993298;28;20060;-66
2022/02/24 12:12:23;;;;;;;15.68;6.10;;;5.50;99.90;;;;;;4993728;28;20128;-68
2022/02/24 12:14:57;;;;;;;14.63;6.28;;;5.50;99.90;;;;;;4995464;28;20062;-66
2022/02/24 12:17:27;;;;;;;16.48;6.53;;;5.50;99.90;;;;;;4990866;28;20111;-67
2022/02/24 12:20:00;;;;;;;12.93;5.40;;;5.50;99.90;;;;;;5008501;28;20064;-66
2022/02/24 12:22:39;;;;;;;18.95;5.22;;;5.50;99.90;;;;;;4994286;28;20049;-65
2022/02/24 12:25:14;;;;;;;21.50;6.45;;;5.50;99.90;;;;;;4996143;28;20500;-67
2022/02/24 12:27:44;;;;;;;19.88;7.43;;;5.50;99.90;;;;;;4991517;28;20132;-65
2022/02/24 12:30:22;;;;;;;25.30;6.60;;;5.50;99.90;;;;;;4991420;28;20216;-65
2022/02/24 12:33:04;;;;;;;17.38;5.20;;;5.50;99.90;;;;;;4993335;28;20369;-65
2022/02/24 12:35:34;;;;;;;14.73;6.30;;;5.40;99.90;;;;;;4979359;28;20067;-64
2022/02/24 12:38:03;;;;;;;20.27;6.22;;;5.40;99.90;;;;;;4988257;28;20073;-69
2022/02/24 12:40:37;;;;;;;;;;;5.40;99.90;;;;;;4976543;28;20530;-68
2022/02/24 12:43:07;;;;;;;15.27;6.50;;;5.50;99.90;;;;;;4973087;28;19930;-68
2022/02/24 12:45:38;;;;;;;15.57;5.47;;;5.40;99.90;;;;;;4974338;28;20054;-64
2022/02/24 12:48:09;;;;;;;14.88;7.00;;;5.50;99.90;;;;;;4972797;28;20050;-66
2022/02/24 12:51:02;;;;;;;12.02;6.68;;;5.50;99.90;;;;;;4975873;28;20046;-68
2022/02/24 12:53:29;;;;;;;12.68;5.72;;;5.50;99.90;;;;;;4973169;28;20916;-66
2022/02/24 12:55:58;;;;;;;20.88;5.82;;;5.50;99.90;;;;;;4992731;28;20046;-66
2022/02/24 12:58:28;;;;;;;15.20;5.20;;;5.50;99.90;;;;;;4973407;28;20122;-68